createdAt,value
2018-10-05T00:02:07.328Z,13.28
2018-10-05T00:04:34.567Z,12.53
2018-10-05T00:07:01.874Z,12.78
2018-10-05T00:09:29.098Z,14.58
2018-10-05T00:11:56.344Z,13.90
2018-10-05T00:14:23.815Z,15.35
2018-10-05T00:16:51.077Z,13.68
2018-10-05T00:19:18.330Z,15.80
2018-10-05T00:21:45.558Z,15.72
2018-10-05T00:24:12.803Z,14.03
2018-10-05T00:26:40.044Z,14.03
2018-10-05T00:29:07.304Z,13.72
2018-10-05T00:31:34.519Z,12.40
2018-10-05T00:34:01.790Z,12.90
2018-10-05T00:36:29.043Z,13.68
2018-10-05T00:38:56.309Z,12.82
2018-10-05T00:41:23.589Z,11.15
2018-10-05T00:43:50.849Z,11.20
2018-10-05T00:46:18.064Z,14.03
2018-10-05T00:48:45.294Z,14.28
2018-10-05T00:51:12.537Z,14.83
2018-10-05T00:53:39.788Z,13.78
2018-10-05T00:56:07.085Z,14.70
2018-10-05T00:58:34.340Z,11.33
2018-10-05T01:01:01.607Z,10.90
2018-10-05T01:03:28.903Z,10.32
2018-10-05T01:05:56.132Z,11.28
2018-10-05T01:08:23.383Z,10.53
2018-10-05T01:10:50.656Z,9.00
2018-10-05T01:13:17.879Z,10.48
2018-10-05T01:15:45.103Z,9.70
2018-10-05T01:18:12.377Z,13.10
2018-10-05T01:20:39.628Z,8.88
2018-10-05T01:23:06.867Z,12.10
2018-10-05T01:25:34.123Z,12.35
2018-10-05T01:28:01.375Z,11.05
2018-10-05T01:30:28.612Z,10.32
2018-10-05T01:32:55.863Z,10.40
2018-10-05T01:35:23.126Z,10.08
2018-10-05T01:37:50.396Z,9.73
2018-10-05T01:40:17.635Z,12.10
2018-10-05T01:42:44.844Z,11.25
2018-10-05T01:45:12.080Z,10.65
2018-10-05T01:47:39.328Z,11.00
2018-10-05T01:50:06.611Z,12.80
2018-10-05T01:52:33.877Z,10.72
2018-10-05T01:55:01.104Z,13.43
2018-10-05T01:57:28.393Z,9.48
2018-10-05T01:59:55.643Z,9.85
2018-10-05T02:02:22.893Z,12.93
2018-10-05T02:04:50.118Z,11.78
2018-10-05T02:07:17.350Z,13.05
2018-10-05T02:09:44.651Z,13.10
2018-10-05T02:12:11.888Z,11.93
2018-10-05T02:14:39.136Z,13.35
2018-10-05T02:17:06.375Z,12.20
2018-10-05T02:19:33.601Z,12.23
2018-10-05T02:22:00.888Z,11.20
2018-10-05T02:24:28.108Z,13.90
2018-10-05T02:26:55.335Z,11.45
2018-10-05T02:29:22.570Z,11.73
2018-10-05T02:31:49.769Z,10.82
2018-10-05T02:34:16.979Z,12.43
2018-10-05T02:36:44.240Z,14.85
2018-10-05T02:39:12.389Z,12.85
2018-10-05T02:41:39.695Z,14.07
2018-10-05T02:44:06.908Z,12.63
2018-10-05T02:46:34.144Z,12.28
2018-10-05T02:49:01.430Z,11.50
2018-10-05T02:51:28.700Z,11.45
2018-10-05T02:53:55.953Z,11.70
2018-10-05T02:56:23.227Z,12.30
2018-10-05T02:58:50.455Z,11.45
2018-10-05T03:01:29.133Z,9.88
2018-10-05T03:03:56.367Z,11.85
2018-10-05T03:06:24.605Z,14.47
2018-10-05T03:08:51.852Z,14.53
2018-10-05T03:11:19.104Z,15.28
2018-10-05T03:13:46.364Z,14.53
2018-10-05T03:16:13.590Z,14.85
2018-10-05T03:18:40.794Z,16.30
2018-10-05T03:21:08.043Z,18.77
2018-10-05T03:23:35.329Z,12.90
2018-10-05T03:26:02.577Z,14.87
2018-10-05T03:28:29.852Z,14.43
2018-10-05T03:30:57.104Z,11.38
2018-10-05T03:33:24.356Z,10.90
2018-10-05T03:35:51.590Z,10.82
2018-10-05T03:38:18.805Z,9.80
2018-10-05T03:40:46.038Z,9.33
2018-10-05T03:43:13.280Z,10.78
2018-10-05T03:45:40.524Z,10.65
2018-10-05T03:48:07.819Z,11.05
2018-10-05T03:50:35.075Z,10.23
2018-10-05T03:53:02.632Z,9.60
2018-10-05T03:55:29.856Z,7.83
2018-10-05T03:57:57.083Z,9.15
2018-10-05T04:00:24.296Z,9.15
2018-10-05T04:02:51.544Z,9.20
2018-10-05T04:05:18.772Z,12.13
2018-10-05T04:07:46.047Z,10.40
2018-10-05T04:10:13.259Z,9.90
2018-10-05T04:12:41.541Z,9.70
2018-10-05T04:15:08.848Z,9.95
2018-10-05T04:17:36.067Z,10.43
2018-10-05T04:20:03.346Z,11.63
2018-10-05T04:22:31.161Z,12.10
2018-10-05T04:24:58.465Z,13.00
2018-10-05T04:27:26.699Z,10.95
2018-10-05T04:29:54.551Z,11.05
2018-10-05T04:32:21.788Z,11.48
2018-10-05T04:34:49.003Z,10.82
2018-10-05T04:37:16.223Z,10.85
2018-10-05T04:39:43.633Z,10.40
2018-10-05T04:42:11.191Z,14.07
2018-10-05T04:44:38.449Z,12.88
2018-10-05T04:47:05.715Z,10.85
2018-10-05T04:49:33.100Z,11.35
2018-10-05T04:52:00.678Z,16.30
2018-10-05T04:54:27.891Z,10.72
2018-10-05T04:56:55.186Z,10.85
2018-10-05T04:59:22.382Z,10.63
2018-10-05T05:01:49.632Z,13.80
2018-10-05T05:04:16.874Z,11.33
2018-10-05T05:06:44.113Z,13.93
2018-10-05T05:09:11.352Z,11.78
2018-10-05T05:11:38.607Z,14.20
2018-10-05T05:14:05.883Z,19.80
2018-10-05T05:16:33.144Z,15.72
2018-10-05T05:19:00.386Z,18.98
2018-10-05T05:21:27.630Z,26.05
2018-10-05T05:23:55.355Z,23.20
2018-10-05T05:26:22.592Z,28.60
2018-10-05T05:28:50.151Z,10.50
2018-10-05T05:31:17.382Z,14.83
2018-10-05T05:33:44.642Z,22.60
2018-10-05T05:36:11.899Z,20.02
2018-10-05T05:38:39.133Z,21.80
2018-10-05T05:41:06.395Z,18.73
2018-10-05T05:43:33.632Z,12.75
2018-10-05T05:46:00.840Z,22.13
2018-10-05T05:48:28.210Z,11.35
2018-10-05T05:50:55.428Z,10.75
2018-10-05T05:53:22.648Z,11.12
2018-10-05T05:55:49.868Z,12.55
2018-10-05T05:58:17.099Z,13.85
2018-10-05T06:00:44.343Z,9.70
2018-10-05T06:03:11.611Z,17.27
2018-10-05T06:05:38.869Z,6.60
2018-10-05T06:08:06.099Z,5.65
2018-10-05T06:10:33.323Z,5.65
2018-10-05T06:13:00.582Z,6.10
2018-10-05T06:15:27.823Z,5.53
2018-10-05T06:17:55.047Z,5.83
2018-10-05T06:20:22.280Z,6.30
2018-10-05T06:22:49.507Z,6.17
2018-10-05T06:25:16.780Z,5.20
2018-10-05T06:27:44.003Z,6.00
2018-10-05T06:30:11.260Z,5.58
2018-10-05T06:32:38.496Z,6.33
2018-10-05T06:35:05.743Z,6.10
2018-10-05T06:37:32.975Z,5.30
2018-10-05T06:40:00.168Z,6.00
2018-10-05T06:42:28.112Z,6.50
2018-10-05T06:44:55.316Z,6.08
2018-10-05T06:47:22.584Z,6.40
2018-10-05T06:49:49.799Z,6.40
2018-10-05T06:52:17.031Z,7.08
2018-10-05T06:54:44.279Z,4.90
2018-10-05T06:57:11.554Z,5.05
2018-10-05T06:59:38.914Z,6.15
2018-10-05T07:02:06.163Z,6.75
2018-10-05T07:04:33.378Z,6.53
2018-10-05T07:07:00.611Z,5.20
2018-10-05T07:09:27.867Z,5.00
2018-10-05T07:11:55.127Z,4.35
2018-10-05T07:14:22.365Z,5.00
2018-10-05T07:16:49.598Z,4.90
2018-10-05T07:19:16.862Z,5.33
2018-10-05T07:21:44.084Z,4.90
2018-10-05T07:24:11.635Z,5.15
2018-10-05T07:26:38.975Z,5.00
2018-10-05T07:29:06.254Z,5.40
2018-10-05T07:31:33.476Z,5.20
2018-10-05T07:34:00.723Z,4.65
2018-10-05T07:36:27.947Z,4.53
2018-10-05T07:38:55.174Z,4.40
2018-10-05T07:41:22.438Z,4.53
2018-10-05T07:43:49.675Z,3.75
2018-10-05T07:46:16.937Z,3.58
2018-10-05T07:48:44.163Z,3.50
2018-10-05T07:51:11.387Z,3.57
2018-10-05T07:53:38.652Z,2.60
2018-10-05T07:56:06.270Z,2.90
2018-10-05T07:58:33.539Z,2.40
2018-10-05T08:01:00.774Z,2.43
2018-10-05T08:03:28.011Z,2.70
2018-10-05T08:05:55.261Z,2.40
2018-10-05T08:08:22.480Z,2.00
2018-10-05T08:10:49.767Z,2.37
2018-10-05T08:13:16.986Z,1.77
2018-10-05T08:15:44.732Z,2.30
2018-10-05T08:18:11.971Z,2.07
2018-10-05T08:20:39.199Z,2.47
2018-10-05T08:23:06.494Z,1.70
2018-10-05T08:25:33.735Z,1.67
2018-10-05T08:28:01.056Z,1.87
2018-10-05T08:30:28.227Z,1.60
2018-10-05T08:32:55.439Z,1.80
2018-10-05T08:35:22.664Z,1.87
2018-10-05T08:37:49.866Z,1.90
2018-10-05T08:40:17.101Z,2.10
2018-10-05T08:42:44.286Z,2.50
2018-10-05T08:45:11.611Z,2.50
2018-10-05T08:47:38.847Z,2.20
2018-10-05T08:50:06.105Z,1.73
2018-10-05T08:52:33.413Z,2.10
2018-10-05T08:55:00.762Z,2.10
2018-10-05T08:57:27.999Z,1.50
2018-10-05T08:59:55.268Z,2.03
2018-10-05T09:02:22.594Z,2.30
2018-10-05T09:04:50.470Z,2.00
2018-10-05T09:07:17.725Z,1.53
2018-10-05T09:09:44.968Z,2.10
2018-10-05T09:12:12.193Z,1.87
2018-10-05T09:14:39.496Z,1.80
2018-10-05T09:17:07.582Z,1.90
2018-10-05T09:19:35.259Z,2.20
2018-10-05T09:22:02.480Z,1.70
2018-10-05T09:24:30.482Z,1.70
2018-10-05T09:26:57.719Z,1.70
2018-10-05T09:29:24.952Z,1.60
2018-10-05T09:31:52.186Z,1.37
2018-10-05T09:34:19.452Z,2.07
2018-10-05T09:36:46.691Z,1.40
2018-10-05T09:39:13.922Z,1.90
2018-10-05T09:41:41.192Z,1.33
2018-10-05T09:44:08.418Z,1.97
2018-10-05T09:46:35.651Z,2.30
2018-10-05T09:49:02.904Z,3.40
2018-10-05T09:51:30.159Z,2.10
2018-10-05T09:53:57.400Z,2.07
2018-10-05T09:56:24.648Z,2.17
2018-10-05T09:58:51.908Z,1.67
2018-10-05T10:01:25.996Z,1.57
2018-10-05T10:03:53.219Z,1.77
2018-10-05T10:06:20.444Z,1.63
2018-10-05T10:08:47.697Z,1.47
2018-10-05T10:11:14.935Z,1.50
2018-10-05T10:13:42.251Z,1.60
2018-10-05T10:16:09.510Z,1.40
2018-10-05T10:18:36.856Z,1.60
2018-10-05T10:21:04.134Z,1.50
2018-10-05T10:23:31.376Z,1.40
2018-10-05T10:25:58.627Z,1.60
2018-10-05T10:28:25.947Z,1.80
2018-10-05T10:30:53.115Z,1.43
2018-10-05T10:33:20.420Z,1.73
2018-10-05T10:35:47.913Z,1.33
2018-10-05T10:38:15.119Z,1.50
2018-10-05T10:40:42.338Z,1.70
2018-10-05T10:43:09.551Z,1.87
2018-10-05T10:45:36.803Z,1.63
2018-10-05T10:48:04.037Z,1.40
2018-10-05T10:50:31.239Z,1.40
2018-10-05T10:52:58.469Z,1.83
2018-10-05T10:55:25.656Z,1.57
2018-10-05T10:57:52.879Z,1.77
2018-10-05T11:00:20.116Z,1.67
2018-10-05T11:02:47.383Z,1.40
2018-10-05T11:05:15.488Z,1.30
2018-10-05T11:07:42.698Z,1.40
2018-10-05T11:10:09.923Z,1.80
2018-10-05T11:12:37.123Z,1.83
2018-10-05T11:15:04.384Z,1.57
2018-10-05T11:17:31.591Z,1.87
2018-10-05T11:19:58.821Z,1.77
2018-10-05T11:22:26.036Z,1.90
2018-10-05T11:24:53.261Z,1.50
2018-10-05T11:27:20.458Z,1.57
2018-10-05T11:29:49.194Z,1.80
2018-10-05T11:32:16.379Z,1.43
2018-10-05T11:34:43.619Z,1.53
2018-10-05T11:37:11.888Z,1.47
2018-10-05T11:39:39.122Z,1.77
2018-10-05T11:42:06.397Z,1.60
2018-10-05T11:44:33.611Z,1.20
2018-10-05T11:47:00.859Z,1.60
2018-10-05T11:49:28.091Z,1.77
2018-10-05T11:51:55.321Z,1.50
2018-10-05T11:54:22.536Z,1.43
2018-10-05T11:56:49.752Z,1.30
2018-10-05T11:59:17.160Z,1.47
2018-10-05T12:01:44.372Z,1.20
2018-10-05T12:04:11.591Z,1.30
2018-10-05T12:06:38.815Z,1.83
2018-10-05T12:09:07.075Z,1.57
2018-10-05T12:11:34.372Z,1.57
2018-10-05T12:14:01.654Z,1.40
2018-10-05T12:16:28.880Z,1.20
2018-10-05T12:18:56.112Z,1.60
2018-10-05T12:21:23.338Z,1.43
2018-10-05T12:23:51.074Z,1.40
2018-10-05T12:26:18.305Z,1.40
2018-10-05T12:28:46.060Z,1.53
2018-10-05T12:31:13.295Z,1.73
2018-10-05T12:33:40.543Z,1.30
2018-10-05T12:36:07.791Z,1.50
2018-10-05T12:38:35.013Z,1.40
2018-10-05T12:41:02.258Z,1.00
2018-10-05T12:43:29.515Z,1.63
2018-10-05T12:45:56.716Z,1.40
2018-10-05T12:48:23.940Z,1.47
2018-10-05T12:50:51.168Z,1.10
2018-10-05T12:53:18.391Z,1.50
2018-10-05T12:55:46.670Z,1.20
2018-10-05T12:58:13.924Z,1.80
2018-10-05T13:00:41.145Z,1.40
2018-10-05T13:03:08.351Z,1.90
2018-10-05T13:05:35.571Z,1.63
2018-10-05T13:08:02.791Z,1.47
2018-10-05T13:10:30.011Z,1.20
2018-10-05T13:12:57.274Z,1.37
2018-10-05T13:15:24.527Z,1.17
2018-10-05T13:17:51.779Z,1.37
2018-10-05T13:20:19.012Z,1.63
2018-10-05T13:22:46.227Z,1.63
2018-10-05T13:25:13.440Z,1.40
2018-10-05T13:27:40.646Z,1.27
2018-10-05T13:30:08.407Z,1.40
2018-10-05T13:32:35.635Z,1.57
2018-10-05T13:35:02.929Z,1.63
2018-10-05T13:37:30.294Z,1.80
2018-10-05T13:39:57.429Z,1.47
2018-10-05T13:42:25.675Z,1.80
2018-10-05T13:44:52.895Z,1.87
2018-10-05T13:47:20.144Z,2.00
2018-10-05T13:49:47.362Z,1.70
2018-10-05T13:52:14.585Z,1.40
2018-10-05T13:54:41.790Z,1.77
2018-10-05T13:57:08.998Z,1.70
2018-10-05T13:59:36.219Z,1.63
2018-10-05T14:02:04.175Z,1.37
2018-10-05T14:04:31.405Z,1.50
2018-10-05T14:06:59.004Z,1.50
2018-10-05T14:09:26.155Z,1.57
2018-10-05T14:11:54.465Z,1.67
2018-10-05T14:14:21.683Z,1.60
2018-10-05T14:16:48.924Z,1.80
2018-10-05T14:19:16.181Z,1.37
2018-10-05T14:21:43.436Z,1.70
2018-10-05T14:24:10.608Z,1.40
2018-10-05T14:26:37.840Z,1.90
2018-10-05T14:29:06.115Z,1.77
2018-10-05T14:31:33.345Z,1.87
2018-10-05T14:34:00.592Z,1.70
2018-10-05T14:36:27.825Z,1.63
2018-10-05T14:38:55.067Z,1.60
2018-10-05T14:41:22.291Z,1.47
2018-10-05T14:43:49.491Z,1.50
2018-10-05T14:46:16.827Z,1.93
2018-10-05T14:48:44.074Z,1.47
2018-10-05T14:51:11.313Z,1.50
2018-10-05T14:53:38.619Z,1.80
2018-10-05T14:56:05.856Z,2.20
2018-10-05T14:58:33.081Z,1.80
2018-10-05T15:01:01.323Z,2.10
2018-10-05T15:03:28.547Z,1.97
2018-10-05T15:05:55.838Z,1.87
2018-10-05T15:08:23.064Z,1.50
2018-10-05T15:10:50.295Z,1.90
2018-10-05T15:13:17.523Z,1.57
2018-10-05T15:15:44.760Z,1.93
2018-10-05T15:18:11.972Z,1.70
2018-10-05T15:20:39.187Z,1.70
2018-10-05T15:23:07.411Z,1.83
2018-10-05T15:25:34.628Z,2.47
2018-10-05T15:28:01.835Z,1.93
2018-10-05T15:30:29.030Z,2.30
2018-10-05T15:32:56.388Z,2.10
2018-10-05T15:35:23.527Z,2.50
2018-10-05T15:37:51.752Z,2.60
2018-10-05T15:40:19.002Z,2.40
2018-10-05T15:42:46.218Z,1.93
2018-10-05T15:45:13.476Z,2.00
2018-10-05T15:47:41.708Z,2.20
2018-10-05T15:50:08.923Z,2.33
2018-10-05T15:52:36.151Z,2.10
2018-10-05T15:55:03.489Z,2.13
2018-10-05T15:57:30.703Z,1.93
2018-10-05T15:59:58.935Z,2.00
2018-10-05T16:02:26.143Z,1.70
2018-10-05T16:04:53.359Z,2.37
2018-10-05T16:07:20.589Z,2.10
2018-10-05T16:09:47.816Z,2.00
2018-10-05T16:12:15.059Z,2.10
2018-10-05T16:14:42.247Z,2.67
2018-10-05T16:17:09.468Z,2.67
2018-10-05T16:19:36.692Z,2.20
2018-10-05T16:22:03.990Z,2.40
2018-10-05T16:24:35.251Z,2.80
2018-10-05T16:27:02.480Z,2.80
2018-10-05T16:29:29.685Z,2.47
2018-10-05T16:31:56.942Z,2.57
2018-10-05T16:34:24.130Z,2.80
2018-10-05T16:36:51.654Z,2.63
2018-10-05T16:39:18.857Z,2.97
2018-10-05T16:41:46.083Z,2.57
2018-10-05T16:44:14.346Z,2.40
2018-10-05T16:46:41.580Z,2.73
2018-10-05T16:49:10.645Z,2.33
2018-10-05T16:51:38.334Z,2.80
2018-10-05T16:54:05.684Z,2.60
2018-10-05T16:56:32.903Z,3.87
2018-10-05T16:59:00.262Z,4.23
2018-10-05T17:01:27.479Z,3.50
2018-10-05T17:03:54.780Z,3.10
2018-10-05T17:06:21.952Z,3.20
2018-10-05T17:08:51.254Z,3.40
2018-10-05T17:11:19.167Z,3.10
2018-10-05T17:13:46.377Z,2.97
2018-10-05T17:16:14.590Z,2.73
2018-10-05T17:18:41.787Z,3.63
2018-10-05T17:21:09.060Z,10.40
2018-10-05T17:23:36.303Z,9.27
2018-10-05T17:26:03.633Z,3.03
2018-10-05T17:28:30.898Z,3.07
2018-10-05T17:30:58.130Z,5.53
2018-10-05T17:33:25.432Z,5.60
2018-10-05T17:35:52.676Z,22.37
2018-10-05T17:38:19.923Z,11.47
2018-10-05T17:40:47.167Z,8.77
2018-10-05T17:43:14.436Z,4.37
2018-10-05T17:45:41.801Z,3.30
2018-10-05T17:48:09.035Z,2.43
2018-10-05T17:50:36.379Z,3.17
2018-10-05T17:53:03.743Z,2.77
2018-10-05T17:55:31.184Z,5.20
2018-10-05T17:57:58.363Z,4.60
2018-10-05T18:00:26.380Z,11.90
2018-10-05T18:02:53.691Z,5.00
2018-10-05T18:05:21.260Z,4.17
2018-10-05T18:07:48.547Z,2.90
2018-10-05T18:10:15.820Z,3.63
2018-10-05T18:12:43.124Z,8.90
2018-10-05T18:15:10.577Z,10.40
2018-10-05T18:17:37.940Z,19.90
2018-10-05T18:20:05.407Z,14.30
2018-10-05T18:22:32.685Z,12.60
2018-10-05T18:24:59.950Z,40.13
2018-10-05T18:27:27.261Z,4.80
2018-10-05T18:29:54.635Z,3.43
2018-10-05T18:32:21.979Z,4.33
2018-10-05T18:34:49.295Z,4.37
2018-10-05T18:37:16.614Z,4.70
2018-10-05T18:39:43.910Z,4.00
2018-10-05T18:42:12.019Z,2.73
2018-10-05T18:44:39.259Z,3.50
2018-10-05T18:47:06.708Z,2.97
2018-10-05T18:49:33.983Z,3.33
2018-10-05T18:52:01.259Z,3.60
2018-10-05T18:54:28.582Z,4.30
2018-10-05T18:57:07.507Z,3.00
2018-10-05T18:59:34.809Z,3.30
2018-10-05T19:02:02.074Z,4.03
2018-10-05T19:04:29.320Z,4.37
2018-10-05T19:06:56.605Z,4.40
2018-10-05T19:09:23.843Z,4.90
2018-10-05T19:11:51.143Z,3.67
2018-10-05T19:14:18.371Z,4.83
2018-10-05T19:16:45.614Z,4.27
2018-10-05T19:19:12.890Z,6.37
2018-10-05T19:21:40.159Z,6.43
2018-10-05T19:24:07.397Z,5.20
2018-10-05T19:26:34.855Z,4.60
2018-10-05T19:29:02.219Z,5.33
2018-10-05T19:31:29.444Z,6.10
2018-10-05T19:33:56.731Z,5.60
2018-10-05T19:36:23.973Z,5.63
2018-10-05T19:38:51.213Z,4.90
2018-10-05T19:41:18.452Z,5.03
2018-10-05T19:43:49.261Z,5.07
2018-10-05T19:46:21.522Z,4.20
2018-10-05T19:48:49.826Z,3.20
2018-10-05T19:51:18.694Z,3.70
2018-10-05T19:53:47.619Z,4.00
2018-10-05T19:56:16.531Z,4.60
2018-10-05T19:58:45.045Z,3.70
2018-10-05T20:01:14.180Z,4.70
2018-10-05T20:03:42.784Z,5.70
2018-10-05T20:06:11.132Z,3.80
2018-10-05T20:08:39.665Z,3.93
2018-10-05T20:11:08.422Z,4.63
2018-10-05T20:13:35.764Z,4.43
2018-10-05T20:16:03.048Z,5.10
2018-10-05T20:18:30.339Z,5.10
2018-10-05T20:20:57.562Z,4.60
2018-10-05T20:23:25.911Z,5.00
2018-10-05T20:25:53.246Z,5.00
2018-10-05T20:28:20.470Z,4.70
2018-10-05T20:30:47.735Z,4.83
2018-10-05T20:33:15.006Z,5.40
2018-10-05T20:35:42.263Z,6.10
2018-10-05T20:38:09.670Z,4.73
2018-10-05T20:40:36.899Z,5.30
2018-10-05T20:43:04.131Z,5.90
2018-10-05T20:45:31.399Z,5.37
2018-10-05T20:47:58.780Z,6.40
2018-10-05T20:50:26.024Z,4.93
2018-10-05T20:52:53.675Z,4.57
2018-10-05T20:55:21.539Z,6.40
2018-10-05T20:57:48.788Z,4.70
2018-10-05T21:00:16.026Z,4.70
2018-10-05T21:02:43.271Z,4.47
2018-10-05T21:05:10.511Z,5.17
2018-10-05T21:07:37.762Z,5.13
2018-10-05T21:10:05.007Z,5.70
2018-10-05T21:12:32.213Z,5.60
2018-10-05T21:14:59.492Z,5.20
2018-10-05T21:17:26.739Z,5.43
2018-10-05T21:19:53.984Z,6.13
2018-10-05T21:22:21.260Z,6.23
2018-10-05T21:24:48.508Z,6.33
2018-10-05T21:27:15.720Z,6.10
2018-10-05T21:29:43.023Z,7.30
2018-10-05T21:32:10.275Z,6.93
2018-10-05T21:34:37.523Z,7.40
2018-10-05T21:37:04.767Z,7.23
2018-10-05T21:39:31.983Z,6.73
2018-10-05T21:41:59.206Z,6.80
2018-10-05T21:44:26.440Z,7.03
2018-10-05T21:46:53.678Z,6.90
2018-10-05T21:49:20.902Z,7.97
2018-10-05T21:51:48.131Z,7.17
2018-10-05T21:54:15.367Z,6.93
2018-10-05T21:56:42.573Z,7.37
2018-10-05T21:59:09.760Z,8.07
2018-10-05T22:01:37.000Z,8.63
2018-10-05T22:04:04.244Z,8.63
2018-10-05T22:06:31.504Z,8.70
2018-10-05T22:08:58.773Z,8.20
2018-10-05T22:11:26.014Z,8.00
2018-10-05T22:13:53.265Z,7.97
2018-10-05T22:16:20.480Z,6.70
2018-10-05T22:18:47.735Z,8.60
2018-10-05T22:21:14.964Z,8.70
2018-10-05T22:23:42.203Z,8.70
2018-10-05T22:26:09.459Z,7.90
2018-10-05T22:28:36.673Z,8.50
2018-10-05T22:31:03.934Z,8.20
2018-10-05T22:33:31.228Z,6.57
2018-10-05T22:35:58.512Z,6.40
2018-10-05T22:38:25.838Z,7.07
2018-10-05T22:40:53.119Z,6.70
2018-10-05T22:43:20.347Z,7.07
2018-10-05T22:45:47.602Z,7.10
2018-10-05T22:48:14.824Z,6.73
2018-10-05T22:50:42.083Z,8.40
2018-10-05T22:53:09.367Z,6.90
2018-10-05T22:55:36.634Z,8.30
2018-10-05T22:58:03.870Z,9.57
2018-10-05T23:00:31.192Z,10.17
2018-10-05T23:02:58.436Z,10.60
2018-10-05T23:05:25.683Z,10.40
2018-10-05T23:07:52.895Z,11.60
2018-10-05T23:10:20.160Z,10.97
2018-10-05T23:12:47.435Z,10.47
2018-10-05T23:15:14.663Z,9.97
2018-10-05T23:17:41.895Z,9.17
2018-10-05T23:20:09.139Z,10.70
2018-10-05T23:22:36.466Z,11.47
2018-10-05T23:25:03.919Z,11.13
2018-10-05T23:27:31.159Z,11.27
2018-10-05T23:29:58.424Z,11.17
2018-10-05T23:32:25.695Z,9.80
2018-10-05T23:34:52.927Z,9.67
2018-10-05T23:37:20.157Z,10.68
2018-10-05T23:39:47.395Z,12.82
2018-10-05T23:42:14.647Z,11.90
2018-10-05T23:44:41.886Z,12.73
2018-10-05T23:47:09.115Z,11.80
2018-10-05T23:49:36.360Z,11.23
2018-10-05T23:52:13.847Z,11.83
2018-10-05T23:54:41.101Z,10.13
2018-10-05T23:57:08.343Z,8.80
2018-10-05T23:59:35.580Z,9.70
